createdAt,value
2023-03-08T00:00:24.796Z,0.00
2023-03-08T00:01:24.813Z,0.00
2023-03-08T00:02:24.773Z,0.00
2023-03-08T00:03:24.794Z,0.00
2023-03-08T00:04:24.850Z,0.00
2023-03-08T00:05:24.747Z,0.00
2023-03-08T00:06:24.790Z,0.00
2023-03-08T00:07:24.752Z,0.00
2023-03-08T00:08:24.842Z,0.00
2023-03-08T00:09:24.702Z,0.00
2023-03-08T00:10:24.700Z,0.00
2023-03-08T00:11:24.680Z,0.00
2023-03-08T00:12:24.669Z,0.00
2023-03-08T00:13:24.680Z,0.00
2023-03-08T00:14:24.650Z,0.00
2023-03-08T00:15:24.637Z,0.00
2023-03-08T00:16:24.744Z,0.00
2023-03-08T00:17:24.613Z,0.00
2023-03-08T00:18:24.649Z,0.00
2023-03-08T00:19:24.598Z,0.00
2023-03-08T00:20:24.587Z,0.00
2023-03-08T00:21:24.571Z,0.00
2023-03-08T00:22:24.589Z,0.00
2023-03-08T00:23:24.591Z,0.00
2023-03-08T00:24:24.542Z,0.00
2023-03-08T00:25:24.528Z,0.00
2023-03-08T00:26:24.535Z,0.00
2023-03-08T00:27:24.511Z,0.00
2023-03-08T00:28:24.547Z,0.00
2023-03-08T00:29:24.508Z,0.00
2023-03-08T00:30:24.480Z,0.00
2023-03-08T00:31:24.514Z,0.00
2023-03-08T00:32:24.512Z,0.00
2023-03-08T00:33:24.482Z,0.00
2023-03-08T00:34:24.450Z,0.00
2023-03-08T00:35:24.489Z,0.00
2023-03-08T00:36:24.419Z,0.00
2023-03-08T00:37:24.420Z,0.00
2023-03-08T00:38:24.452Z,0.00
2023-03-08T00:39:24.389Z,0.00
2023-03-08T00:40:24.379Z,0.00
2023-03-08T00:41:24.361Z,0.00
2023-03-08T00:42:24.373Z,0.00
2023-03-08T00:43:24.370Z,0.00
2023-03-08T00:44:24.342Z,0.00
2023-03-08T00:45:24.328Z,0.00
2023-03-08T00:46:24.369Z,0.00
2023-03-08T00:47:24.300Z,0.00
2023-03-08T00:48:24.302Z,0.00
2023-03-08T00:49:24.282Z,0.00
2023-03-08T00:50:24.270Z,0.00
2023-03-08T00:51:24.274Z,0.00
2023-03-08T00:52:24.246Z,0.00
2023-03-08T00:53:24.258Z,0.00
2023-03-08T00:54:24.246Z,0.00
2023-03-08T00:55:24.218Z,0.00
2023-03-08T00:56:24.215Z,0.00
2023-03-08T00:57:24.195Z,0.00
2023-03-08T00:58:24.214Z,0.00
2023-03-08T00:59:24.195Z,0.00
2023-03-08T01:00:24.181Z,0.00
2023-03-08T01:01:24.164Z,0.00
2023-03-08T01:02:24.150Z,0.00
2023-03-08T01:03:24.138Z,0.00
2023-03-08T01:04:24.121Z,0.00
2023-03-08T01:05:24.108Z,0.00
2023-03-08T01:06:24.101Z,0.00
2023-03-08T01:07:24.108Z,0.00
2023-03-08T01:08:24.101Z,0.00
2023-03-08T01:09:24.067Z,0.00
2023-03-08T01:10:24.084Z,0.00
2023-03-08T01:11:24.048Z,0.00
2023-03-08T01:12:24.032Z,0.00
2023-03-08T01:13:24.036Z,0.00
2023-03-08T01:14:24.030Z,0.00
2023-03-08T01:15:23.999Z,0.00
2023-03-08T01:16:24.005Z,0.00
2023-03-08T01:17:23.986Z,0.00
2023-03-08T01:18:23.986Z,0.00
2023-03-08T01:19:23.971Z,0.00
2023-03-08T01:20:23.949Z,0.00
2023-03-08T01:21:23.963Z,0.00
2023-03-08T01:22:23.928Z,0.00
2023-03-08T01:23:23.944Z,0.00
2023-03-08T01:24:23.912Z,0.00
2023-03-08T01:25:23.912Z,0.00
2023-03-08T01:26:23.932Z,0.00
2023-03-08T01:27:23.875Z,0.00
2023-03-08T01:28:23.862Z,0.00
2023-03-08T01:29:23.881Z,0.00
2023-03-08T01:30:23.845Z,0.00
2023-03-08T01:31:23.830Z,0.00
2023-03-08T01:32:23.861Z,0.00
2023-03-08T01:33:23.807Z,0.00
2023-03-08T01:34:23.857Z,0.00
2023-03-08T01:35:23.789Z,0.00
2023-03-08T01:36:23.781Z,0.00
2023-03-08T01:37:23.764Z,0.00
2023-03-08T01:38:23.755Z,0.00
2023-03-08T01:39:23.832Z,0.00
2023-03-08T01:40:23.731Z,0.00
2023-03-08T01:41:23.722Z,0.00
2023-03-08T01:42:23.733Z,0.00
2023-03-08T01:43:23.719Z,0.00
2023-03-08T01:44:23.711Z,0.00
2023-03-08T01:45:23.691Z,0.00
2023-03-08T01:46:23.671Z,0.00
2023-03-08T01:47:23.656Z,0.00
2023-03-08T01:48:23.659Z,0.00
2023-03-08T01:49:23.659Z,0.00
2023-03-08T01:50:23.625Z,0.00
2023-03-08T01:51:23.617Z,0.00
2023-03-08T01:52:23.609Z,0.00
2023-03-08T01:53:23.596Z,0.00
2023-03-08T01:54:23.598Z,0.00
2023-03-08T01:55:23.574Z,0.00
2023-03-08T01:56:23.568Z,0.00
2023-03-08T01:57:23.557Z,0.00
2023-03-08T01:58:23.583Z,0.00
2023-03-08T01:59:23.559Z,0.00
2023-03-08T02:00:23.522Z,0.00
2023-03-08T02:01:23.587Z,0.00
2023-03-08T02:02:23.500Z,0.00
2023-03-08T02:03:23.484Z,0.00
2023-03-08T02:04:23.499Z,0.00
2023-03-08T02:05:23.465Z,0.00
2023-03-08T02:06:23.461Z,0.00
2023-03-08T02:07:23.451Z,0.00
2023-03-08T02:08:23.438Z,0.00
2023-03-08T02:09:23.456Z,0.00
2023-03-08T02:10:23.424Z,0.00
2023-03-08T02:11:23.404Z,0.00
2023-03-08T02:12:23.395Z,0.00
2023-03-08T02:13:23.381Z,0.00
2023-03-08T02:14:23.405Z,0.00
2023-03-08T02:15:23.363Z,0.00
2023-03-08T02:16:23.350Z,0.00
2023-03-08T02:17:23.346Z,0.00
2023-03-08T02:18:23.350Z,0.00
2023-03-08T02:19:23.340Z,0.00
2023-03-08T02:20:23.311Z,0.00
2023-03-08T02:21:23.321Z,0.00
2023-03-08T02:22:23.289Z,0.00
2023-03-08T02:23:23.280Z,0.00
2023-03-08T02:24:23.285Z,0.00
2023-03-08T02:25:23.256Z,0.00
2023-03-08T02:26:23.245Z,0.00
2023-03-08T02:27:23.316Z,0.00
2023-03-08T02:28:23.225Z,0.00
2023-03-08T02:29:23.239Z,0.00
2023-03-08T02:30:23.237Z,0.00
2023-03-08T02:31:23.202Z,0.00
2023-03-08T02:32:23.283Z,0.00
2023-03-08T02:33:23.192Z,0.00
2023-03-08T02:34:23.176Z,0.00
2023-03-08T02:35:23.182Z,0.00
2023-03-08T02:36:23.151Z,0.00
2023-03-08T02:37:23.136Z,0.00
2023-03-08T02:38:23.121Z,0.00
2023-03-08T02:39:23.152Z,0.00
2023-03-08T02:40:23.123Z,0.00
2023-03-08T02:41:23.087Z,0.00
2023-03-08T02:42:23.089Z,0.00
2023-03-08T02:43:23.073Z,0.00
2023-03-08T02:44:23.087Z,0.00
2023-03-08T02:45:23.049Z,0.00
2023-03-08T02:46:23.062Z,0.00
2023-03-08T02:47:23.026Z,0.00
2023-03-08T02:48:23.024Z,0.00
2023-03-08T02:49:23.039Z,0.00
2023-03-08T02:50:23.026Z,0.00
2023-03-08T02:51:22.984Z,0.00
2023-03-08T02:52:22.975Z,0.00
2023-03-08T02:53:22.968Z,0.00
2023-03-08T02:54:22.965Z,0.00
2023-03-08T02:55:22.948Z,0.00
2023-03-08T02:56:22.939Z,0.00
2023-03-08T02:57:22.917Z,0.00
2023-03-08T02:58:22.910Z,0.00
2023-03-08T02:59:24.061Z,0.00
2023-03-08T03:00:22.886Z,0.00
2023-03-08T03:01:23.044Z,0.00
2023-03-08T03:02:22.898Z,0.00
2023-03-08T03:03:22.857Z,0.00
2023-03-08T03:04:22.881Z,0.00
2023-03-08T03:05:22.843Z,0.00
2023-03-08T03:06:22.920Z,0.00
2023-03-08T03:07:22.819Z,0.00
2023-03-08T03:08:22.807Z,0.00
2023-03-08T03:09:22.841Z,0.00
2023-03-08T03:10:22.787Z,0.00
2023-03-08T03:11:22.845Z,0.00
2023-03-08T03:12:22.756Z,0.00
2023-03-08T03:13:22.744Z,0.00
2023-03-08T03:14:22.761Z,0.00
2023-03-08T03:15:22.727Z,0.00
2023-03-08T03:16:22.713Z,0.00
2023-03-08T03:17:22.742Z,0.00
2023-03-08T03:18:22.811Z,0.00
2023-03-08T03:19:22.748Z,0.00
2023-03-08T03:20:22.669Z,0.00
2023-03-08T03:21:22.663Z,0.00
2023-03-08T03:22:22.679Z,0.00
2023-03-08T03:23:22.639Z,0.00
2023-03-08T03:24:22.689Z,0.00
2023-03-08T03:25:22.621Z,0.00
2023-03-08T03:26:22.665Z,0.00
2023-03-08T03:27:22.596Z,0.00
2023-03-08T03:28:22.586Z,0.00
2023-03-08T03:29:22.591Z,0.00
2023-03-08T03:30:22.563Z,0.00
2023-03-08T03:31:22.629Z,0.00
2023-03-08T03:32:22.641Z,0.00
2023-03-08T03:33:22.531Z,0.00
2023-03-08T03:34:22.564Z,0.00
2023-03-08T03:35:22.510Z,0.00
2023-03-08T03:36:22.500Z,0.00
2023-03-08T03:37:22.506Z,0.00
2023-03-08T03:38:22.477Z,0.00
2023-03-08T03:39:22.466Z,0.00
2023-03-08T03:40:22.458Z,0.00
2023-03-08T03:41:22.448Z,0.00
2023-03-08T03:42:22.469Z,0.00
2023-03-08T03:43:22.421Z,0.00
2023-03-08T03:44:22.435Z,0.00
2023-03-08T03:45:22.398Z,0.00
2023-03-08T03:46:22.395Z,0.00
2023-03-08T03:47:22.383Z,0.00
2023-03-08T03:48:22.379Z,0.00
2023-03-08T03:49:22.391Z,0.00
2023-03-08T03:50:22.378Z,0.00
2023-03-08T03:51:22.404Z,0.00
2023-03-08T03:52:22.337Z,0.00
2023-03-08T03:53:22.322Z,0.00
2023-03-08T03:54:22.335Z,0.00
2023-03-08T03:55:22.301Z,0.00
2023-03-08T03:56:22.290Z,0.00
2023-03-08T03:57:22.314Z,0.00
2023-03-08T03:58:22.274Z,0.00
2023-03-08T03:59:22.258Z,0.00
2023-03-08T04:00:22.255Z,0.00
2023-03-08T04:01:22.242Z,0.00
2023-03-08T04:02:22.317Z,0.00
2023-03-08T04:03:22.418Z,0.00
2023-03-08T04:04:22.240Z,0.00
2023-03-08T04:05:22.201Z,0.00
2023-03-08T04:06:22.285Z,0.00
2023-03-08T04:07:22.195Z,0.00
2023-03-08T04:08:22.172Z,0.00
2023-03-08T04:09:22.156Z,0.00
2023-03-08T04:10:22.143Z,0.00
2023-03-08T04:11:22.138Z,0.00
2023-03-08T04:12:22.140Z,0.00
2023-03-08T04:13:22.120Z,0.00
2023-03-08T04:14:22.103Z,0.00
2023-03-08T04:15:22.114Z,0.00
2023-03-08T04:16:22.125Z,0.00
2023-03-08T04:17:22.072Z,0.00
2023-03-08T04:18:22.056Z,0.00
2023-03-08T04:19:22.053Z,0.00
2023-03-08T04:20:22.056Z,0.00
2023-03-08T04:21:22.027Z,0.00
2023-03-08T04:22:22.032Z,0.00
2023-03-08T04:23:22.007Z,0.00
2023-03-08T04:24:22.001Z,0.00
2023-03-08T04:25:21.998Z,0.00
2023-03-08T04:26:21.971Z,0.00
2023-03-08T04:27:21.965Z,0.00
2023-03-08T04:28:21.953Z,0.00
2023-03-08T04:29:21.938Z,0.00
2023-03-08T04:30:21.952Z,0.00
2023-03-08T04:31:21.955Z,0.00
2023-03-08T04:32:21.937Z,0.00
2023-03-08T04:33:21.905Z,0.00
2023-03-08T04:34:21.883Z,0.00
2023-03-08T04:35:21.882Z,0.00
2023-03-08T04:36:21.866Z,0.00
2023-03-08T04:37:21.858Z,0.00
2023-03-08T04:38:21.872Z,0.00
2023-03-08T04:39:21.842Z,0.00
2023-03-08T04:40:21.844Z,0.00
2023-03-08T04:41:21.815Z,0.00
2023-03-08T04:42:21.800Z,0.00
2023-03-08T04:43:21.800Z,0.00
2023-03-08T04:44:21.776Z,0.00
2023-03-08T04:45:21.787Z,0.00
2023-03-08T04:46:21.840Z,0.00
2023-03-08T04:47:21.751Z,0.00
2023-03-08T04:48:21.748Z,0.00
2023-03-08T04:49:21.729Z,0.00
2023-03-08T04:50:21.749Z,0.00
2023-03-08T04:51:21.702Z,0.00
2023-03-08T04:52:21.690Z,0.00
2023-03-08T04:53:21.681Z,0.00
2023-03-08T04:54:21.695Z,0.00
2023-03-08T04:55:21.676Z,0.00
2023-03-08T04:56:21.652Z,0.00
2023-03-08T04:57:21.664Z,0.00
2023-03-08T04:58:21.634Z,0.00
2023-03-08T04:59:21.621Z,0.00
2023-03-08T05:00:21.612Z,0.00
2023-03-08T05:01:21.598Z,0.00
2023-03-08T05:02:21.672Z,0.00
2023-03-08T05:03:21.582Z,0.00
2023-03-08T05:04:21.582Z,4.00
2023-03-08T05:05:21.585Z,4.00
2023-03-08T05:06:21.542Z,0.00
2023-03-08T05:07:21.534Z,0.00
2023-03-08T05:08:21.525Z,4.00
2023-03-08T05:09:21.512Z,0.00
2023-03-08T05:10:21.540Z,4.00
2023-03-08T05:11:21.500Z,4.00
2023-03-08T05:12:21.625Z,8.00
2023-03-08T05:13:21.471Z,4.00
2023-03-08T05:14:21.462Z,8.00
2023-03-08T05:15:21.447Z,8.00
2023-03-08T05:16:21.534Z,8.00
2023-03-08T05:17:21.451Z,12.00
2023-03-08T05:18:21.417Z,16.00
2023-03-08T05:19:21.408Z,16.00
2023-03-08T05:20:21.458Z,20.00
2023-03-08T05:21:21.391Z,20.00
2023-03-08T05:22:21.370Z,28.00
2023-03-08T05:23:21.361Z,32.00
2023-03-08T05:24:21.357Z,36.00
2023-03-08T05:25:21.355Z,44.00
2023-03-08T05:26:21.363Z,48.00
2023-03-08T05:27:21.339Z,56.00
2023-03-08T05:28:21.305Z,60.00
2023-03-08T05:29:21.299Z,72.00
2023-03-08T05:30:21.338Z,80.00
2023-03-08T05:31:21.307Z,92.00
2023-03-08T05:32:21.312Z,104.00
2023-03-08T05:33:21.254Z,112.00
2023-03-08T05:34:21.242Z,124.00
2023-03-08T05:35:21.244Z,140.00
2023-03-08T05:36:21.223Z,156.00
2023-03-08T05:37:21.211Z,168.00
2023-03-08T05:38:21.201Z,188.00
2023-03-08T05:39:21.190Z,204.00
2023-03-08T05:40:21.186Z,220.00
2023-03-08T05:41:21.168Z,240.00
2023-03-08T05:42:21.177Z,260.00
2023-03-08T05:43:21.143Z,284.00
2023-03-08T05:44:21.132Z,312.00
2023-03-08T05:45:21.159Z,340.00
2023-03-08T05:46:21.194Z,372.00
2023-03-08T05:47:21.104Z,408.00
2023-03-08T05:48:21.101Z,440.00
2023-03-08T05:49:21.084Z,484.00
2023-03-08T05:50:21.089Z,524.00
2023-03-08T05:51:21.063Z,568.00
2023-03-08T05:52:21.074Z,616.00
2023-03-08T05:53:21.036Z,668.00
2023-03-08T05:54:21.024Z,728.00
2023-03-08T05:55:21.016Z,788.00
2023-03-08T05:56:21.001Z,860.00
2023-03-08T05:57:21.017Z,928.00
2023-03-08T05:58:21.000Z,984.00
2023-03-08T05:59:20.975Z,1004.00
2023-03-08T06:00:20.961Z,1072.00
2023-03-08T06:01:20.956Z,1236.00
2023-03-08T06:02:20.986Z,1428.00
2023-03-08T06:03:20.958Z,1308.00
2023-03-08T06:04:20.931Z,1164.00
2023-03-08T06:05:20.948Z,1180.00
2023-03-08T06:06:20.894Z,1220.00
2023-03-08T06:07:20.882Z,1260.00
2023-03-08T06:08:20.876Z,1316.00
2023-03-08T06:09:20.865Z,1388.00
2023-03-08T06:10:20.891Z,1480.00
2023-03-08T06:11:20.843Z,1588.00
2023-03-08T06:12:20.847Z,1688.00
2023-03-08T06:13:20.820Z,1764.00
2023-03-08T06:14:20.841Z,1900.00
2023-03-08T06:15:20.828Z,3268.00
2023-03-08T06:16:20.854Z,4388.00
2023-03-08T06:17:20.775Z,4720.00
2023-03-08T06:18:20.764Z,5244.00
2023-03-08T06:19:20.755Z,5108.00
2023-03-08T06:20:20.848Z,4496.00
2023-03-08T06:21:20.734Z,4216.00
2023-03-08T06:22:20.723Z,4888.00
2023-03-08T06:23:20.717Z,5956.00
2023-03-08T06:24:20.706Z,7148.00
2023-03-08T06:25:21.045Z,7408.00
2023-03-08T06:26:20.675Z,7340.00
2023-03-08T06:27:20.667Z,8316.00
2023-03-08T06:28:20.657Z,8368.00
2023-03-08T06:29:20.648Z,8400.00
2023-03-08T06:30:20.712Z,8976.00
2023-03-08T06:31:20.632Z,7936.00
2023-03-08T06:32:20.654Z,7540.00
2023-03-08T06:33:20.607Z,7812.00
2023-03-08T06:34:20.596Z,8504.00
2023-03-08T06:35:20.658Z,9792.00
2023-03-08T06:36:20.576Z,11296.00
2023-03-08T06:37:20.566Z,11724.00
2023-03-08T06:38:20.554Z,11712.00
2023-03-08T06:39:20.550Z,11956.00
2023-03-08T06:40:20.573Z,12080.00
2023-03-08T06:41:20.542Z,14816.00
2023-03-08T06:42:31.247Z,15040.00
2023-03-08T06:43:21.504Z,13536.00
2023-03-08T06:44:20.492Z,11364.00
2023-03-08T06:45:20.491Z,11480.00
2023-03-08T06:46:20.705Z,12732.00
2023-03-08T06:47:20.461Z,12332.00
2023-03-08T06:48:20.449Z,12240.00
2023-03-08T06:49:20.517Z,10992.00
2023-03-08T06:50:20.431Z,10100.00
2023-03-08T06:51:20.460Z,9972.00
2023-03-08T06:52:20.409Z,10404.00
2023-03-08T06:53:20.417Z,10004.00
2023-03-08T06:54:20.416Z,10860.00
2023-03-08T06:55:20.412Z,10416.00
2023-03-08T06:56:20.397Z,13184.00
2023-03-08T06:57:20.410Z,11924.00
2023-03-08T06:58:20.342Z,10968.00
2023-03-08T06:59:20.349Z,10876.00
2023-03-08T07:00:20.318Z,8412.00
2023-03-08T07:01:20.360Z,8592.00
2023-03-08T07:02:20.320Z,8516.00
2023-03-08T07:03:20.300Z,9616.00
2023-03-08T07:04:20.367Z,10548.00
2023-03-08T07:05:20.260Z,11768.00
2023-03-08T07:06:20.262Z,11464.00
2023-03-08T07:07:20.348Z,10492.00
2023-03-08T07:08:20.229Z,10472.00
2023-03-08T07:09:20.216Z,11136.00
2023-03-08T07:10:20.205Z,16416.00
2023-03-08T07:11:20.208Z,15552.00
2023-03-08T07:12:20.182Z,16096.00
2023-03-08T07:13:20.170Z,15936.00
2023-03-08T07:14:20.160Z,17344.00
2023-03-08T07:15:20.162Z,18080.00
2023-03-08T07:16:20.219Z,20192.00
2023-03-08T07:17:20.127Z,22816.00
2023-03-08T07:18:20.144Z,21984.00
2023-03-08T07:19:20.125Z,21280.00
2023-03-08T07:20:20.100Z,22784.00
2023-03-08T07:21:20.092Z,22592.00
2023-03-08T07:22:20.076Z,21888.00
2023-03-08T07:23:20.073Z,24256.00
2023-03-08T07:24:20.047Z,23808.00
2023-03-08T07:25:20.045Z,21216.00
2023-03-08T07:26:20.042Z,19744.00
2023-03-08T07:27:20.023Z,19744.00
2023-03-08T07:28:20.019Z,19488.00
2023-03-08T07:29:19.992Z,19968.00
2023-03-08T07:30:19.996Z,22016.00
2023-03-08T07:31:19.975Z,24352.00
2023-03-08T07:32:20.092Z,26688.00
2023-03-08T07:33:19.968Z,25504.00
2023-03-08T07:34:19.967Z,24064.00
2023-03-08T07:35:19.927Z,23232.00
2023-03-08T07:36:19.960Z,22432.00
2023-03-08T07:37:19.906Z,26560.00
2023-03-08T07:38:19.895Z,27104.00
2023-03-08T07:39:19.885Z,25504.00
2023-03-08T07:40:19.877Z,26560.00
2023-03-08T07:41:19.873Z,29280.00
2023-03-08T07:42:19.856Z,31296.00
2023-03-08T07:43:19.844Z,33440.00
2023-03-08T07:44:19.829Z,34368.00
2023-03-08T07:45:19.831Z,37056.00
2023-03-08T07:46:19.844Z,40064.00
2023-03-08T07:47:19.800Z,38688.00
2023-03-08T07:48:19.801Z,36800.00
2023-03-08T07:49:19.783Z,35488.00
2023-03-08T07:50:19.873Z,36352.00
2023-03-08T07:51:19.846Z,34176.00
2023-03-08T07:52:19.758Z,33728.00
2023-03-08T07:53:19.740Z,32704.00
2023-03-08T07:54:21.610Z,29664.00
2023-03-08T07:55:19.716Z,30144.00
2023-03-08T07:56:19.723Z,31168.00
2023-03-08T07:57:19.694Z,34080.00
2023-03-08T07:58:19.698Z,32288.00
2023-03-08T07:59:19.700Z,30656.00
2023-03-08T08:00:19.662Z,29184.00
2023-03-08T08:01:19.676Z,25568.00
2023-03-08T08:02:19.647Z,29024.00
2023-03-08T08:03:19.684Z,25728.00
2023-03-08T08:04:19.653Z,23520.00
2023-03-08T08:05:19.646Z,28288.00
2023-03-08T08:06:19.638Z,28512.00
2023-03-08T08:07:19.593Z,27008.00
2023-03-08T08:08:19.577Z,27168.00
2023-03-08T08:09:19.574Z,29312.00
2023-03-08T08:10:19.558Z,29600.00
2023-03-08T08:11:19.587Z,27328.00
2023-03-08T08:12:19.545Z,28864.00
2023-03-08T08:13:19.525Z,30496.00
2023-03-08T08:14:19.515Z,30240.00
2023-03-08T08:15:19.503Z,31520.00
2023-03-08T08:16:19.533Z,30912.00
2023-03-08T08:17:19.478Z,34464.00
2023-03-08T08:18:19.486Z,36128.00
2023-03-08T08:19:19.459Z,33696.00
2023-03-08T08:20:19.452Z,34016.00
2023-03-08T08:21:19.465Z,34016.00
2023-03-08T08:22:19.452Z,35616.00
2023-03-08T08:23:19.415Z,35840.00
2023-03-08T08:24:19.406Z,35712.00
2023-03-08T08:25:19.398Z,36288.00
2023-03-08T08:26:19.402Z,27008.00
2023-03-08T08:27:19.371Z,34784.00
2023-03-08T08:28:19.361Z,36992.00
2023-03-08T08:29:19.354Z,41184.00
2023-03-08T08:30:19.354Z,45088.00
2023-03-08T08:31:19.398Z,38976.00
2023-03-08T08:32:19.368Z,27392.00
2023-03-08T08:33:19.835Z,21824.00
2023-03-08T08:34:19.291Z,18176.00
2023-03-08T08:35:19.284Z,16960.00
2023-03-08T08:36:19.357Z,20096.00
2023-03-08T08:37:19.263Z,19104.00
2023-03-08T08:38:19.270Z,18336.00
2023-03-08T08:39:19.242Z,10332.00
2023-03-08T08:40:19.233Z,15744.00
2023-03-08T08:41:19.284Z,27296.00
2023-03-08T08:42:19.215Z,27328.00
2023-03-08T08:43:19.210Z,29792.00
2023-03-08T08:44:19.185Z,31424.00
2023-03-08T08:45:19.180Z,28640.00
2023-03-08T08:46:19.194Z,25824.00
2023-03-08T08:47:19.191Z,21024.00
2023-03-08T08:48:19.146Z,25536.00
2023-03-08T08:49:19.135Z,29888.00
2023-03-08T08:50:19.133Z,33056.00
2023-03-08T08:51:19.138Z,39456.00
2023-03-08T08:52:19.113Z,28608.00
2023-03-08T08:53:19.167Z,40864.00
2023-03-08T08:54:19.176Z,40704.00
2023-03-08T08:55:19.066Z,34048.00
2023-03-08T08:56:27.930Z,40896.00
2023-03-08T08:57:20.049Z,38816.00
2023-03-08T08:58:19.037Z,38016.00
2023-03-08T08:59:19.035Z,31456.00
2023-03-08T09:00:19.019Z,27616.00
2023-03-08T09:01:19.099Z,18528.00
2023-03-08T09:02:19.056Z,22176.00
2023-03-08T09:03:18.989Z,30304.00
2023-03-08T09:04:19.068Z,23328.00
2023-03-08T09:05:19.018Z,25856.00
2023-03-08T09:06:18.976Z,26848.00
2023-03-08T09:07:18.939Z,37120.00
2023-03-08T09:08:18.929Z,34528.00
2023-03-08T09:09:18.913Z,27744.00
2023-03-08T09:10:18.962Z,33536.00
2023-03-08T09:11:18.938Z,22688.00
2023-03-08T09:12:18.895Z,28096.00
2023-03-08T09:13:18.978Z,19232.00
2023-03-08T09:14:18.862Z,17632.00
2023-03-08T09:15:18.852Z,11880.00
2023-03-08T09:16:18.945Z,12604.00
2023-03-08T09:17:18.831Z,13848.00
2023-03-08T09:18:18.830Z,17504.00
2023-03-08T09:19:18.942Z,24864.00
2023-03-08T09:20:18.800Z,17344.00
2023-03-08T09:21:18.808Z,27328.00
2023-03-08T09:22:18.783Z,34784.00
2023-03-08T09:23:18.783Z,34304.00
2023-03-08T09:24:18.844Z,30560.00
2023-03-08T09:25:18.776Z,28512.00
2023-03-08T09:26:18.855Z,34368.00
2023-03-08T09:27:18.739Z,33920.00
2023-03-08T09:28:18.722Z,31040.00
2023-03-08T09:29:18.726Z,26144.00
2023-03-08T09:30:18.702Z,21984.00
2023-03-08T09:31:18.801Z,16608.00
2023-03-08T09:32:18.772Z,15196.00
2023-03-08T09:33:18.668Z,15968.00
2023-03-08T09:34:18.672Z,21344.00
2023-03-08T09:35:18.652Z,19328.00
2023-03-08T09:36:18.650Z,20128.00
2023-03-08T09:37:18.637Z,13628.00
2023-03-08T09:38:18.627Z,15200.00
2023-03-08T09:39:18.603Z,14128.00
2023-03-08T09:40:18.605Z,17152.00
2023-03-08T09:41:18.614Z,13872.00
2023-03-08T09:42:18.616Z,12444.00
2023-03-08T09:43:18.560Z,13252.00
2023-03-08T09:44:18.543Z,14300.00
2023-03-08T09:45:18.533Z,13724.00
2023-03-08T09:46:18.566Z,16288.00
2023-03-08T09:47:18.509Z,17472.00
2023-03-08T09:48:18.532Z,15744.00
2023-03-08T09:49:18.511Z,16224.00
2023-03-08T09:50:18.488Z,17088.00
2023-03-08T09:51:18.507Z,16448.00
2023-03-08T09:52:18.457Z,16960.00
2023-03-08T09:53:18.455Z,16064.00
2023-03-08T09:54:18.434Z,14980.00
2023-03-08T09:55:18.517Z,17856.00
2023-03-08T09:56:18.422Z,21056.00
2023-03-08T09:57:18.461Z,23776.00
2023-03-08T09:58:18.408Z,16096.00
2023-03-08T09:59:18.379Z,24320.00
2023-03-08T10:00:18.366Z,26784.00
2023-03-08T10:01:18.379Z,26880.00
2023-03-08T10:02:18.343Z,15788.00
2023-03-08T10:03:18.334Z,14068.00
2023-03-08T10:04:18.366Z,23136.00
2023-03-08T10:05:18.324Z,19936.00
2023-03-08T10:06:18.322Z,36032.00
2023-03-08T10:07:18.282Z,49632.00
2023-03-08T10:08:18.288Z,20640.00
2023-03-08T10:09:18.280Z,18880.00
2023-03-08T10:10:18.264Z,34752.00
2023-03-08T10:11:18.236Z,11784.00
2023-03-08T10:12:18.249Z,13636.00
2023-03-08T10:13:18.223Z,22272.00
2023-03-08T10:14:18.238Z,21824.00
2023-03-08T10:15:18.205Z,21568.00
2023-03-08T10:16:18.203Z,35968.00
2023-03-08T10:17:18.186Z,26784.00
2023-03-08T10:18:18.183Z,31424.00
2023-03-08T10:19:18.152Z,25408.00
2023-03-08T10:20:18.145Z,41568.00
2023-03-08T10:21:18.131Z,43520.00
2023-03-08T10:22:18.181Z,40544.00
2023-03-08T10:23:18.106Z,37120.00
2023-03-08T10:24:18.105Z,38336.00
2023-03-08T10:25:18.087Z,27968.00
2023-03-08T10:26:18.074Z,25696.00
2023-03-08T10:27:18.094Z,17120.00
2023-03-08T10:28:18.056Z,10748.00
2023-03-08T10:29:18.042Z,9348.00
2023-03-08T10:30:18.059Z,12600.00
2023-03-08T10:31:18.025Z,19712.00
2023-03-08T10:32:18.164Z,18144.00
2023-03-08T10:33:18.006Z,7972.00
2023-03-08T10:34:18.015Z,7688.00
2023-03-08T10:35:18.008Z,6984.00
2023-03-08T10:36:17.968Z,6220.00
2023-03-08T10:37:17.983Z,6364.00
2023-03-08T10:38:17.956Z,6820.00
2023-03-08T10:39:17.942Z,5600.00
2023-03-08T10:40:17.937Z,5344.00
2023-03-08T10:41:17.911Z,5348.00
2023-03-08T10:42:17.902Z,5088.00
2023-03-08T10:43:17.890Z,5488.00
2023-03-08T10:44:17.888Z,6240.00
2023-03-08T10:45:17.885Z,7132.00
2023-03-08T10:46:17.979Z,5292.00
2023-03-08T10:47:17.858Z,5624.00
2023-03-08T10:48:17.838Z,5988.00
2023-03-08T10:49:17.851Z,6732.00
2023-03-08T10:50:17.899Z,8136.00
2023-03-08T10:51:17.801Z,8160.00
2023-03-08T10:52:17.834Z,7056.00
2023-03-08T10:53:17.787Z,6484.00
2023-03-08T10:54:17.775Z,5988.00
2023-03-08T10:55:17.780Z,5704.00
2023-03-08T10:56:17.796Z,5800.00
2023-03-08T10:57:17.741Z,5776.00
2023-03-08T10:58:17.729Z,5716.00
2023-03-08T10:59:17.720Z,5440.00
2023-03-08T11:00:17.758Z,5532.00
2023-03-08T11:01:17.697Z,5852.00
2023-03-08T11:02:17.725Z,6572.00
2023-03-08T11:03:17.688Z,7008.00
2023-03-08T11:04:17.726Z,7284.00
2023-03-08T11:05:17.689Z,7012.00
2023-03-08T11:06:17.644Z,6564.00
2023-03-08T11:07:17.652Z,6288.00
2023-03-08T11:08:17.622Z,6260.00
2023-03-08T11:09:17.607Z,6184.00
2023-03-08T11:10:17.627Z,6040.00
2023-03-08T11:11:17.615Z,5784.00
2023-03-08T11:12:17.734Z,5684.00
2023-03-08T11:13:17.572Z,5600.00
2023-03-08T11:14:17.600Z,5532.00
2023-03-08T11:15:17.561Z,5580.00
2023-03-08T11:16:17.634Z,5612.00
2023-03-08T11:17:17.515Z,5652.00
2023-03-08T11:18:17.522Z,5632.00
2023-03-08T11:19:17.547Z,5652.00
2023-03-08T11:20:17.669Z,5608.00
2023-03-08T11:21:17.493Z,5476.00
2023-03-08T11:22:17.472Z,5328.00
2023-03-08T11:23:17.449Z,5232.00
2023-03-08T11:24:17.509Z,4964.00
2023-03-08T11:25:17.428Z,4708.00
2023-03-08T11:26:17.428Z,4536.00
2023-03-08T11:27:17.426Z,4408.00
2023-03-08T11:28:17.401Z,4252.00
2023-03-08T11:29:17.385Z,4044.00
2023-03-08T11:30:17.470Z,3924.00
2023-03-08T11:31:17.416Z,3912.00
2023-03-08T11:32:17.414Z,3892.00
2023-03-08T11:33:17.561Z,3940.00
2023-03-08T11:34:17.358Z,4036.00
2023-03-08T11:35:17.325Z,4104.00
2023-03-08T11:36:17.313Z,4108.00
2023-03-08T11:37:17.374Z,4120.00
2023-03-08T11:38:17.294Z,4156.00
2023-03-08T11:39:17.276Z,4168.00
2023-03-08T11:40:17.280Z,4140.00
2023-03-08T11:41:17.255Z,4044.00
2023-03-08T11:42:17.269Z,3932.00
2023-03-08T11:43:17.234Z,3876.00
2023-03-08T11:44:17.226Z,3916.00
2023-03-08T11:45:17.211Z,4024.00
2023-03-08T11:46:17.258Z,4152.00
2023-03-08T11:47:17.209Z,4276.00
2023-03-08T11:48:17.178Z,4304.00
2023-03-08T11:49:17.183Z,4264.00
2023-03-08T11:50:17.182Z,4208.00
2023-03-08T11:51:17.147Z,4144.00
2023-03-08T11:52:17.168Z,4016.00
2023-03-08T11:53:17.125Z,3800.00
2023-03-08T11:54:17.114Z,3628.00
2023-03-08T11:55:17.123Z,3528.00
2023-03-08T11:56:17.093Z,3484.00
2023-03-08T11:57:17.090Z,3468.00
2023-03-08T11:58:17.069Z,3492.00
2023-03-08T11:59:17.058Z,3516.00
2023-03-08T12:00:17.062Z,3508.00
2023-03-08T12:01:17.033Z,3456.00
2023-03-08T12:02:17.035Z,3468.00
2023-03-08T12:03:17.023Z,3568.00
2023-03-08T12:04:17.035Z,3660.00
2023-03-08T12:05:17.058Z,3752.00
2023-03-08T12:06:28.303Z,3912.00
2023-03-08T12:07:18.180Z,4104.00
2023-03-08T12:08:17.047Z,4312.00
2023-03-08T12:09:17.044Z,4460.00
2023-03-08T12:10:17.102Z,4532.00
2023-03-08T12:11:16.921Z,4568.00
2023-03-08T12:12:16.957Z,4516.00
2023-03-08T12:13:16.914Z,4516.00
2023-03-08T12:14:16.909Z,4516.00
2023-03-08T12:15:16.985Z,4436.00
2023-03-08T12:16:16.993Z,4260.00
2023-03-08T12:17:16.924Z,4060.00
2023-03-08T12:18:16.850Z,3820.00
2023-03-08T12:19:16.837Z,3604.00
2023-03-08T12:20:16.832Z,3460.00
2023-03-08T12:21:16.815Z,3488.00
2023-03-08T12:22:16.857Z,3484.00
2023-03-08T12:23:16.789Z,3472.00
2023-03-08T12:24:16.828Z,3452.00
2023-03-08T12:25:16.767Z,3424.00
2023-03-08T12:26:16.776Z,3396.00
2023-03-08T12:27:16.762Z,3328.00
2023-03-08T12:28:16.790Z,3284.00
2023-03-08T12:29:16.755Z,3284.00